This is the latest recevied weather packets stored in our database for station/object N9OJR. If no packets are shown the sender has not sent any weather packets the latest 10 day(s).
| Time | Temp. | Humidity | Pressure | Rain* | Wind** | Luminosity | Snow |
|---|---|---|---|---|---|---|---|
| 1777991691 | 18.89° C | 72% | 1003.7 hPa | 0 mm | - | 686 W/m² | - |
| 1777991388 | 19.44° C | 72% | 1003.8 hPa | 0 mm | - | 684 W/m² | - |
| 1777991086 | 18.89° C | 72% | 1003.7 hPa | 0 mm | - | 629 W/m² | - |
| 1777990783 | 19.44° C | 73% | 1003.8 hPa | 0 mm | - | 695 W/m² | - |
| 1777990480 | 18.89° C | 72% | 1003.6 hPa | 0 mm | - | 650 W/m² | - |
| 1777989873 | 18.89° C | 72% | 1003.6 hPa | 0 mm | - | 592 W/m² | - |
| 1777989570 | 18.33° C | 74% | 1003.7 hPa | 0 mm | - | 573 W/m² | - |
| 1777989266 | 18.33° C | 74% | 1003.6 hPa | 0 mm | - | 541 W/m² | - |
| 1777988963 | 18.33° C | 73% | 1003.6 hPa | 0 mm | - | 574 W/m² | - |
| 1777988660 | 18.89° C | 72% | 1003.9 hPa | 0 mm | - | 577 W/m² | - |
| 1777988356 | 18.89° C | 74% | 1004.2 hPa | 0 mm | - | 563 W/m² | - |
| 1777988054 | 18.33° C | 73% | 1003.9 hPa | 0 mm | - | 537 W/m² | - |
| 1777987749 | 17.78° C | 76% | 1003.9 hPa | 0 mm | - | 446 W/m² | - |
| 1777987446 | 17.22° C | 76% | 1003.8 hPa | 0 mm | - | 223 W/m² | - |
| 1777987144 | 16.67° C | 78% | 1003.8 hPa | 0 mm | - | 127 W/m² | - |
| 1777986840 | 16.67° C | 77% | 1003.6 hPa | 0 mm | - | 138 W/m² | - |
| 1777986538 | 16.67° C | 78% | 1003.7 hPa | 0 mm | - | 160 W/m² | - |
| 1777986236 | 16.67° C | 78% | 1003.8 hPa | 0 mm | - | 163 W/m² | - |
| 1777985933 | 16.11° C | 78% | 1003.7 hPa | 0 mm | - | 122 W/m² | - |
| 1777985631 | 16.11° C | 79% | 1003.7 hPa | 0 mm | - | 77 W/m² | - |
| 1777985327 | 16.11° C | 79% | 1003.7 hPa | 0 mm | - | 56 W/m² | - |
| 1777985024 | 16.11° C | 78% | 1003.3 hPa | 0 mm | - | 51 W/m² | - |
| 1777984720 | 16.11° C | 78% | 1003.3 hPa | 0 mm | - | 52 W/m² | - |
| 1777984417 | 16.11° C | 78% | 1003.2 hPa | 0 mm | - | 58 W/m² | - |
| 1777984112 | 16.11° C | 78% | 1003.2 hPa | 0 mm | - | 58 W/m² | - |
* Rain latest hour (hover to see other rain measurements)
** Current wind speed in m/s (hover to see current wind gust speed)